sensor_id;sensor_type;location;lat;lon;timestamp;P1;P2;P0
56360;PMS7003;42611;51.132;13.588;2024-01-15T00:02:01;19.7;16.9;
56360;PMS7003;42611;51.132;13.588;2024-01-15T00:12:02;20.0;17.1;
56360;PMS7003;42611;51.132;13.588;2024-01-15T00:17:01;20.6;17.5;
56360;PMS7003;42611;51.132;13.588;2024-01-15T00:22:01;20.8;18.0;
56360;PMS7003;42611;51.132;13.588;2024-01-15T00:27:01;20.5;18.5;
56360;PMS7003;42611;51.132;13.588;2024-01-15T00:32:01;22.2;19.7;
56360;PMS7003;42611;51.132;13.588;2024-01-15T00:37:01;21.9;19.4;
56360;PMS7003;42611;51.132;13.588;2024-01-15T00:42:01;20.7;18.8;
56360;PMS7003;42611;51.132;13.588;2024-01-15T00:47:01;24.2;21.3;
56360;PMS7003;42611;51.132;13.588;2024-01-15T00:52:01;24.8;21.5;
56360;PMS7003;42611;51.132;13.588;2024-01-15T00:58:01;23.8;20.8;
56360;PMS7003;42611;51.132;13.588;2024-01-15T01:03:01;23.9;20.9;
56360;PMS7003;42611;51.132;13.588;2024-01-15T01:08:01;25.4;21.8;
56360;PMS7003;42611;51.132;13.588;2024-01-15T01:13:01;24.5;20.4;
56360;PMS7003;42611;51.132;13.588;2024-01-15T01:18:02;23.7;20.3;
56360;PMS7003;42611;51.132;13.588;2024-01-15T01:23:01;24.6;21.4;
56360;PMS7003;42611;51.132;13.588;2024-01-15T01:28:01;26.0;21.8;
56360;PMS7003;42611;51.132;13.588;2024-01-15T01:33:01;26.2;22.0;
56360;PMS7003;42611;51.132;13.588;2024-01-15T01:38:01;26.5;23.0;
56360;PMS7003;42611;51.132;13.588;2024-01-15T01:43:02;26.6;23.0;
56360;PMS7003;42611;51.132;13.588;2024-01-15T01:48:02;24.0;20.6;
56360;PMS7003;42611;51.132;13.588;2024-01-15T01:53:01;23.6;21.2;
56360;PMS7003;42611;51.132;13.588;2024-01-15T01:58:01;22.5;20.4;
56360;PMS7003;42611;51.132;13.588;2024-01-15T02:04:03;22.0;20.4;
56360;PMS7003;42611;51.132;13.588;2024-01-15T02:09:01;22.5;20.2;
56360;PMS7003;42611;51.132;13.588;2024-01-15T02:14:01;23.8;21.3;
56360;PMS7003;42611;51.132;13.588;2024-01-15T02:19:02;23.4;20.9;
56360;PMS7003;42611;51.132;13.588;2024-01-15T02:24:01;23.8;21.5;
56360;PMS7003;42611;51.132;13.588;2024-01-15T02:29:01;23.4;20.8;
56360;PMS7003;42611;51.132;13.588;2024-01-15T02:34:02;23.5;21.4;
56360;PMS7003;42611;51.132;13.588;2024-01-15T02:39:01;24.2;22.5;
56360;PMS7003;42611;51.132;13.588;2024-01-15T02:44:01;24.8;22.9;
56360;PMS7003;42611;51.132;13.588;2024-01-15T02:49:01;26.1;23.7;
56360;PMS7003;42611;51.132;13.588;2024-01-15T02:54:01;26.4;23.8;
56360;PMS7003;42611;51.132;13.588;2024-01-15T02:59:01;26.5;23.8;
56360;PMS7003;42611;51.132;13.588;2024-01-15T03:04:02;25.5;23.0;
56360;PMS7003;42611;51.132;13.588;2024-01-15T03:09:01;25.4;23.1;
56360;PMS7003;42611;51.132;13.588;2024-01-15T03:14:01;22.3;20.4;
56360;PMS7003;42611;51.132;13.588;2024-01-15T03:19:01;21.0;19.4;
56360;PMS7003;42611;51.132;13.588;2024-01-15T03:24:02;20.6;19.1;
56360;PMS7003;42611;51.132;13.588;2024-01-15T03:29:01;21.2;19.7;
56360;PMS7003;42611;51.132;13.588;2024-01-15T03:34:02;20.2;18.6;
56360;PMS7003;42611;51.132;13.588;2024-01-15T03:39:06;22.0;20.2;
56360;PMS7003;42611;51.132;13.588;2024-01-15T03:44:01;23.2;21.6;
56360;PMS7003;42611;51.132;13.588;2024-01-15T03:49:01;23.5;21.9;
56360;PMS7003;42611;51.132;13.588;2024-01-15T03:54:01;23.8;21.4;
56360;PMS7003;42611;51.132;13.588;2024-01-15T03:59:01;24.8;22.6;
56360;PMS7003;42611;51.132;13.588;2024-01-15T04:04:01;27.4;23.6;
56360;PMS7003;42611;51.132;13.588;2024-01-15T04:09:02;26.8;23.4;
56360;PMS7003;42611;51.132;13.588;2024-01-15T04:14:01;26.6;22.9;
56360;PMS7003;42611;51.132;13.588;2024-01-15T04:19:02;26.1;22.4;
56360;PMS7003;42611;51.132;13.588;2024-01-15T04:24:01;26.9;22.8;
56360;PMS7003;42611;51.132;13.588;2024-01-15T04:29:01;25.0;22.8;
56360;PMS7003;42611;51.132;13.588;2024-01-15T04:34:01;24.5;22.1;
56360;PMS7003;42611;51.132;13.588;2024-01-15T04:39:01;24.3;22.3;
56360;PMS7003;42611;51.132;13.588;2024-01-15T04:44:01;25.6;23.1;
56360;PMS7003;42611;51.132;13.588;2024-01-15T04:49:01;23.8;22.0;
56360;PMS7003;42611;51.132;13.588;2024-01-15T04:54:01;24.1;21.6;
56360;PMS7003;42611;51.132;13.588;2024-01-15T04:59:01;24.9;22.0;
56360;PMS7003;42611;51.132;13.588;2024-01-15T05:04:02;24.7;21.4;
56360;PMS7003;42611;51.132;13.588;2024-01-15T05:09:06;23.3;20.8;
56360;PMS7003;42611;51.132;13.588;2024-01-15T05:14:01;24.2;21.7;
56360;PMS7003;42611;51.132;13.588;2024-01-15T05:19:02;24.6;21.6;
56360;PMS7003;42611;51.132;13.588;2024-01-15T05:24:01;24.9;22.1;
56360;PMS7003;42611;51.132;13.588;2024-01-15T05:29:01;26.3;22.6;
56360;PMS7003;42611;51.132;13.588;2024-01-15T05:34:02;26.1;22.4;
56360;PMS7003;42611;51.132;13.588;2024-01-15T05:39:01;26.0;22.2;
56360;PMS7003;42611;51.132;13.588;2024-01-15T05:44:01;24.3;21.5;
56360;PMS7003;42611;51.132;13.588;2024-01-15T05:49:02;23.3;20.4;
56360;PMS7003;42611;51.132;13.588;2024-01-15T05:54:01;19.6;18.0;
56360;PMS7003;42611;51.132;13.588;2024-01-15T05:59:01;19.5;17.9;
56360;PMS7003;42611;51.132;13.588;2024-01-15T06:04:02;20.3;17.2;
56360;PMS7003;42611;51.132;13.588;2024-01-15T06:09:01;20.8;17.5;
56360;PMS7003;42611;51.132;13.588;2024-01-15T06:14:01;21.6;18.1;
56360;PMS7003;42611;51.132;13.588;2024-01-15T06:19:02;24.3;20.2;
56360;PMS7003;42611;51.132;13.588;2024-01-15T06:24:01;24.2;20.8;
56360;PMS7003;42611;51.132;13.588;2024-01-15T06:29:01;22.1;19.9;
56360;PMS7003;42611;51.132;13.588;2024-01-15T06:34:02;21.4;19.5;
56360;PMS7003;42611;51.132;13.588;2024-01-15T06:39:01;21.0;18.5;
56360;PMS7003;42611;51.132;13.588;2024-01-15T06:44:01;19.1;17.0;
56360;PMS7003;42611;51.132;13.588;2024-01-15T06:49:01;19.3;16.6;
56360;PMS7003;42611;51.132;13.588;2024-01-15T06:54:01;20.6;16.7;
56360;PMS7003;42611;51.132;13.588;2024-01-15T06:59:01;20.1;16.0;
56360;PMS7003;42611;51.132;13.588;2024-01-15T07:04:01;18.6;15.8;
56360;PMS7003;42611;51.132;13.588;2024-01-15T07:09:01;18.9;16.2;
56360;PMS7003;42611;51.132;13.588;2024-01-15T07:14:01;16.4;14.3;
56360;PMS7003;42611;51.132;13.588;2024-01-15T07:19:01;14.1;13.4;
56360;PMS7003;42611;51.132;13.588;2024-01-15T07:24:01;15.6;14.1;
56360;PMS7003;42611;51.132;13.588;2024-01-15T07:29:01;15.7;14.2;
56360;PMS7003;42611;51.132;13.588;2024-01-15T07:34:02;15.8;14.2;
56360;PMS7003;42611;51.132;13.588;2024-01-15T07:39:01;16.9;15.1;
56360;PMS7003;42611;51.132;13.588;2024-01-15T07:44:01;18.2;15.6;
56360;PMS7003;42611;51.132;13.588;2024-01-15T07:49:02;17.8;15.3;
56360;PMS7003;42611;51.132;13.588;2024-01-15T07:54:01;18.5;15.5;
56360;PMS7003;42611;51.132;13.588;2024-01-15T07:59:01;17.9;15.0;
56360;PMS7003;42611;51.132;13.588;2024-01-15T08:04:11;19.0;15.1;
56360;PMS7003;42611;51.132;13.588;2024-01-15T08:09:01;18.3;14.8;
56360;PMS7003;42611;51.132;13.588;2024-01-15T08:14:01;17.3;14.9;
56360;PMS7003;42611;51.132;13.588;2024-01-15T08:19:02;16.9;14.8;
56360;PMS7003;42611;51.132;13.588;2024-01-15T08:24:01;18.1;15.9;
56360;PMS7003;42611;51.132;13.588;2024-01-15T08:29:01;17.9;16.6;
56360;PMS7003;42611;51.132;13.588;2024-01-15T08:34:01;18.5;16.9;
56360;PMS7003;42611;51.132;13.588;2024-01-15T08:39:01;18.8;17.0;
56360;PMS7003;42611;51.132;13.588;2024-01-15T08:44:01;18.4;16.4;
56360;PMS7003;42611;51.132;13.588;2024-01-15T08:49:02;17.1;15.4;
56360;PMS7003;42611;51.132;13.588;2024-01-15T08:54:01;17.3;15.4;
56360;PMS7003;42611;51.132;13.588;2024-01-15T08:59:02;17.0;15.2;
56360;PMS7003;42611;51.132;13.588;2024-01-15T09:04:01;16.5;14.8;
56360;PMS7003;42611;51.132;13.588;2024-01-15T09:09:01;17.1;15.4;
56360;PMS7003;42611;51.132;13.588;2024-01-15T09:14:01;18.1;16.0;
56360;PMS7003;42611;51.132;13.588;2024-01-15T09:19:02;16.3;14.6;
56360;PMS7003;42611;51.132;13.588;2024-01-15T09:24:01;15.8;14.6;
56360;PMS7003;42611;51.132;13.588;2024-01-15T09:29:06;15.2;14.2;
56360;PMS7003;42611;51.132;13.588;2024-01-15T09:34:01;14.5;13.7;
56360;PMS7003;42611;51.132;13.588;2024-01-15T09:39:01;13.5;13.2;
56360;PMS7003;42611;51.132;13.588;2024-01-15T09:44:03;15.3;14.3;
56360;PMS7003;42611;51.132;13.588;2024-01-15T09:49:03;14.9;13.9;
56360;PMS7003;42611;51.132;13.588;2024-01-15T09:54:01;15.6;13.9;
56360;PMS7003;42611;51.132;13.588;2024-01-15T09:59:01;16.1;13.9;
56360;PMS7003;42611;51.132;13.588;2024-01-15T10:04:02;15.2;12.9;
56360;PMS7003;42611;51.132;13.588;2024-01-15T10:09:02;14.8;12.6;
56360;PMS7003;42611;51.132;13.588;2024-01-15T10:14:01;15.6;13.0;
56360;PMS7003;42611;51.132;13.588;2024-01-15T10:19:03;14.9;12.8;
56360;PMS7003;42611;51.132;13.588;2024-01-15T10:24:01;14.4;12.8;
56360;PMS7003;42611;51.132;13.588;2024-01-15T10:29:01;14.8;13.4;
56360;PMS7003;42611;51.132;13.588;2024-01-15T10:34:17;14.7;13.5;
56360;PMS7003;42611;51.132;13.588;2024-01-15T10:39:01;14.5;13.0;
56360;PMS7003;42611;51.132;13.588;2024-01-15T10:44:01;14.4;13.1;
56360;PMS7003;42611;51.132;13.588;2024-01-15T10:49:01;14.7;12.7;
56360;PMS7003;42611;51.132;13.588;2024-01-15T10:54:01;15.0;12.3;
56360;PMS7003;42611;51.132;13.588;2024-01-15T10:59:01;14.4;11.5;
56360;PMS7003;42611;51.132;13.588;2024-01-15T11:04:01;14.6;11.9;
56360;PMS7003;42611;51.132;13.588;2024-01-15T11:09:01;15.9;12.3;
56360;PMS7003;42611;51.132;13.588;2024-01-15T11:14:01;14.8;11.8;
56360;PMS7003;42611;51.132;13.588;2024-01-15T11:19:02;13.9;11.6;
56360;PMS7003;42611;51.132;13.588;2024-01-15T11:24:02;14.0;12.1;
56360;PMS7003;42611;51.132;13.588;2024-01-15T11:39:19;15.4;12.6;
56360;PMS7003;42611;51.132;13.588;2024-01-15T11:44:01;16.1;13.2;
56360;PMS7003;42611;51.132;13.588;2024-01-15T11:54:03;14.8;13.0;
56360;PMS7003;42611;51.132;13.588;2024-01-15T11:59:05;12.4;11.5;
56360;PMS7003;42611;51.132;13.588;2024-01-15T12:04:02;10.6;10.3;
56360;PMS7003;42611;51.132;13.588;2024-01-15T12:09:07;10.8;10.0;
56360;PMS7003;42611;51.132;13.588;2024-01-15T12:14:02;10.1;9.2;
56360;PMS7003;42611;51.132;13.588;2024-01-15T12:19:01;10.8;9.4;
56360;PMS7003;42611;51.132;13.588;2024-01-15T12:24:01;12.4;10.5;
56360;PMS7003;42611;51.132;13.588;2024-01-15T12:29:01;13.4;11.4;
56360;PMS7003;42611;51.132;13.588;2024-01-15T12:34:01;13.3;11.5;
56360;PMS7003;42611;51.132;13.588;2024-01-15T12:39:01;13.6;11.9;
56360;PMS7003;42611;51.132;13.588;2024-01-15T12:44:01;13.2;11.6;
56360;PMS7003;42611;51.132;13.588;2024-01-15T12:49:03;13.0;11.3;
56360;PMS7003;42611;51.132;13.588;2024-01-15T12:54:01;12.2;10.9;
56360;PMS7003;42611;51.132;13.588;2024-01-15T12:59:01;12.0;10.6;
56360;PMS7003;42611;51.132;13.588;2024-01-15T13:04:02;12.2;10.3;
56360;PMS7003;42611;51.132;13.588;2024-01-15T13:09:01;11.7;10.0;
56360;PMS7003;42611;51.132;13.588;2024-01-15T13:14:01;11.3;9.7;
56360;PMS7003;42611;51.132;13.588;2024-01-15T13:19:02;11.2;9.6;
56360;PMS7003;42611;51.132;13.588;2024-01-15T13:29:03;10.6;9.8;
56360;PMS7003;42611;51.132;13.588;2024-01-15T13:34:01;10.8;9.7;
56360;PMS7003;42611;51.132;13.588;2024-01-15T13:39:01;11.5;10.5;
56360;PMS7003;42611;51.132;13.588;2024-01-15T13:44:01;10.8;9.8;
56360;PMS7003;42611;51.132;13.588;2024-01-15T13:49:02;10.5;9.4;
56360;PMS7003;42611;51.132;13.588;2024-01-15T13:54:02;11.0;10.0;
56360;PMS7003;42611;51.132;13.588;2024-01-15T13:59:02;12.4;10.6;
56360;PMS7003;42611;51.132;13.588;2024-01-15T14:04:01;12.0;10.6;
56360;PMS7003;42611;51.132;13.588;2024-01-15T14:09:01;14.6;12.8;
56360;PMS7003;42611;51.132;13.588;2024-01-15T14:14:01;14.9;13.1;
56360;PMS7003;42611;51.132;13.588;2024-01-15T14:19:02;15.6;13.3;
56360;PMS7003;42611;51.132;13.588;2024-01-15T14:24:01;13.9;12.9;
56360;PMS7003;42611;51.132;13.588;2024-01-15T14:30:02;13.8;12.5;
56360;PMS7003;42611;51.132;13.588;2024-01-15T14:35:02;12.7;11.6;
56360;PMS7003;42611;51.132;13.588;2024-01-15T14:40:02;12.4;11.3;
56360;PMS7003;42611;51.132;13.588;2024-01-15T14:45:03;11.9;10.6;
56360;PMS7003;42611;51.132;13.588;2024-01-15T14:50:01;13.0;11.4;
56360;PMS7003;42611;51.132;13.588;2024-01-15T14:55:02;13.6;12.3;
56360;PMS7003;42611;51.132;13.588;2024-01-15T15:00:03;13.5;11.9;
56360;PMS7003;42611;51.132;13.588;2024-01-15T15:05:02;14.4;12.7;
56360;PMS7003;42611;51.132;13.588;2024-01-15T15:10:03;14.7;13.3;
56360;PMS7003;42611;51.132;13.588;2024-01-15T15:15:25;14.8;13.4;
56360;PMS7003;42611;51.132;13.588;2024-01-15T15:20:02;12.8;11.5;
56360;PMS7003;42611;51.132;13.588;2024-01-15T15:25:01;14.4;13.0;
56360;PMS7003;42611;51.132;13.588;2024-01-15T15:30:01;15.2;13.2;
56360;PMS7003;42611;51.132;13.588;2024-01-15T15:35:02;15.6;13.7;
56360;PMS7003;42611;51.132;13.588;2024-01-15T15:40:01;16.2;14.1;
56360;PMS7003;42611;51.132;13.588;2024-01-15T15:45:04;18.0;15.4;
56360;PMS7003;42611;51.132;13.588;2024-01-15T15:50:02;17.4;14.9;
56360;PMS7003;42611;51.132;13.588;2024-01-15T15:55:03;17.5;15.2;
56360;PMS7003;42611;51.132;13.588;2024-01-15T16:00:02;17.7;14.9;
56360;PMS7003;42611;51.132;13.588;2024-01-15T16:05:01;17.4;14.2;
56360;PMS7003;42611;51.132;13.588;2024-01-15T16:10:01;17.6;14.7;
56360;PMS7003;42611;51.132;13.588;2024-01-15T16:15:01;17.0;14.4;
56360;PMS7003;42611;51.132;13.588;2024-01-15T16:20:16;16.3;14.2;
56360;PMS7003;42611;51.132;13.588;2024-01-15T16:25:06;16.2;14.2;
56360;PMS7003;42611;51.132;13.588;2024-01-15T16:30:05;15.8;14.0;
56360;PMS7003;42611;51.132;13.588;2024-01-15T16:35:02;15.2;13.6;
56360;PMS7003;42611;51.132;13.588;2024-01-15T16:40:02;16.2;13.8;
56360;PMS7003;42611;51.132;13.588;2024-01-15T16:45:12;16.0;13.2;
56360;PMS7003;42611;51.132;13.588;2024-01-15T16:50:02;15.1;13.0;
56360;PMS7003;42611;51.132;13.588;2024-01-15T16:55:01;14.9;13.0;
56360;PMS7003;42611;51.132;13.588;2024-01-15T17:00:02;16.6;14.6;
56360;PMS7003;42611;51.132;13.588;2024-01-15T17:05:02;17.5;15.2;
56360;PMS7003;42611;51.132;13.588;2024-01-15T17:10:02;18.7;17.0;
56360;PMS7003;42611;51.132;13.588;2024-01-15T17:15:01;19.2;17.3;
56360;PMS7003;42611;51.132;13.588;2024-01-15T17:20:01;20.2;18.7;
56360;PMS7003;42611;51.132;13.588;2024-01-15T17:25:01;20.3;18.7;
56360;PMS7003;42611;51.132;13.588;2024-01-15T17:30:02;19.2;18.3;
56360;PMS7003;42611;51.132;13.588;2024-01-15T17:35:01;18.6;16.8;
56360;PMS7003;42611;51.132;13.588;2024-01-15T17:40:04;18.7;17.0;
56360;PMS7003;42611;51.132;13.588;2024-01-15T17:45:03;18.0;15.9;
56360;PMS7003;42611;51.132;13.588;2024-01-15T17:50:02;18.1;15.2;
56360;PMS7003;42611;51.132;13.588;2024-01-15T17:55:01;17.4;14.4;
56360;PMS7003;42611;51.132;13.588;2024-01-15T18:00:02;16.0;13.7;
56360;PMS7003;42611;51.132;13.588;2024-01-15T18:05:01;16.5;14.0;
56360;PMS7003;42611;51.132;13.588;2024-01-15T18:10:01;15.9;13.9;
56360;PMS7003;42611;51.132;13.588;2024-01-15T18:15:02;14.9;13.6;
56360;PMS7003;42611;51.132;13.588;2024-01-15T18:20:02;15.7;14.5;
56360;PMS7003;42611;51.132;13.588;2024-01-15T18:25:01;16.7;15.7;
56360;PMS7003;42611;51.132;13.588;2024-01-15T18:30:02;16.1;15.3;
56360;PMS7003;42611;51.132;13.588;2024-01-15T18:40:01;17.0;16.0;
56360;PMS7003;42611;51.132;13.588;2024-01-15T18:45:02;16.0;15.2;
56360;PMS7003;42611;51.132;13.588;2024-01-15T18:55:01;17.0;15.7;
56360;PMS7003;42611;51.132;13.588;2024-01-15T19:00:02;19.4;17.4;
56360;PMS7003;42611;51.132;13.588;2024-01-15T19:05:02;19.0;17.1;
56360;PMS7003;42611;51.132;13.588;2024-01-15T19:10:01;20.6;18.6;
56360;PMS7003;42611;51.132;13.588;2024-01-15T19:15:02;21.2;18.5;
56360;PMS7003;42611;51.132;13.588;2024-01-15T19:25:01;20.6;17.5;
56360;PMS7003;42611;51.132;13.588;2024-01-15T19:30:02;20.9;17.8;
56360;PMS7003;42611;51.132;13.588;2024-01-15T19:35:02;20.4;16.9;
56360;PMS7003;42611;51.132;13.588;2024-01-15T19:40:02;19.8;17.2;
56360;PMS7003;42611;51.132;13.588;2024-01-15T19:45:02;19.6;17.2;
56360;PMS7003;42611;51.132;13.588;2024-01-15T19:50:01;18.9;16.6;
56360;PMS7003;42611;51.132;13.588;2024-01-15T19:55:01;18.4;15.4;
56360;PMS7003;42611;51.132;13.588;2024-01-15T20:00:02;17.8;15.0;
56360;PMS7003;42611;51.132;13.588;2024-01-15T20:05:01;18.1;14.7;
56360;PMS7003;42611;51.132;13.588;2024-01-15T20:10:01;16.6;13.1;
56360;PMS7003;42611;51.132;13.588;2024-01-15T20:15:02;15.4;11.8;
56360;PMS7003;42611;51.132;13.588;2024-01-15T20:21:02;15.6;12.0;
56360;PMS7003;42611;51.132;13.588;2024-01-15T20:26:02;15.0;12.0;
56360;PMS7003;42611;51.132;13.588;2024-01-15T20:31:01;13.8;11.3;
56360;PMS7003;42611;51.132;13.588;2024-01-15T20:36:01;13.7;11.2;
56360;PMS7003;42611;51.132;13.588;2024-01-15T20:41:02;12.9;11.3;
56360;PMS7003;42611;51.132;13.588;2024-01-15T20:46:01;10.7;10.0;
56360;PMS7003;42611;51.132;13.588;2024-01-15T20:51:01;10.2;9.0;
56360;PMS7003;42611;51.132;13.588;2024-01-15T20:56:01;9.9;8.8;
56360;PMS7003;42611;51.132;13.588;2024-01-15T21:01:05;8.7;8.0;
56360;PMS7003;42611;51.132;13.588;2024-01-15T21:06:02;8.4;7.9;
56360;PMS7003;42611;51.132;13.588;2024-01-15T21:11:01;7.6;7.1;
56360;PMS7003;42611;51.132;13.588;2024-01-15T21:16:01;7.5;7.0;
56360;PMS7003;42611;51.132;13.588;2024-01-15T21:22:01;7.4;6.9;
56360;PMS7003;42611;51.132;13.588;2024-01-15T21:27:01;8.1;7.4;
56360;PMS7003;42611;51.132;13.588;2024-01-15T21:32:01;7.6;6.6;
56360;PMS7003;42611;51.132;13.588;2024-01-15T21:37:06;8.2;7.2;
56360;PMS7003;42611;51.132;13.588;2024-01-15T21:47:01;8.0;6.9;
56360;PMS7003;42611;51.132;13.588;2024-01-15T21:52:01;7.4;6.4;
56360;PMS7003;42611;51.132;13.588;2024-01-15T21:57:01;7.9;7.0;
56360;PMS7003;42611;51.132;13.588;2024-01-15T22:02:01;7.3;6.3;
56360;PMS7003;42611;51.132;13.588;2024-01-15T22:07:01;6.4;5.4;
56360;PMS7003;42611;51.132;13.588;2024-01-15T22:12:01;6.0;5.7;
56360;PMS7003;42611;51.132;13.588;2024-01-15T22:17:01;5.6;5.5;
56360;PMS7003;42611;51.132;13.588;2024-01-15T22:22:01;5.1;5.0;
56360;PMS7003;42611;51.132;13.588;2024-01-15T22:27:01;5.0;4.8;
56360;PMS7003;42611;51.132;13.588;2024-01-15T22:32:01;4.6;4.2;
56360;PMS7003;42611;51.132;13.588;2024-01-15T22:37:01;3.8;3.3;
56360;PMS7003;42611;51.132;13.588;2024-01-15T22:47:01;4.2;3.4;
56360;PMS7003;42611;51.132;13.588;2024-01-15T22:52:01;5.4;4.5;
56360;PMS7003;42611;51.132;13.588;2024-01-15T22:57:02;6.4;5.8;
56360;PMS7003;42611;51.132;13.588;2024-01-15T23:02:01;7.9;6.8;
56360;PMS7003;42611;51.132;13.588;2024-01-15T23:07:01;8.7;7.8;
56360;PMS7003;42611;51.132;13.588;2024-01-15T23:12:01;9.6;8.2;
56360;PMS7003;42611;51.132;13.588;2024-01-15T23:17:01;8.9;7.8;
56360;PMS7003;42611;51.132;13.588;2024-01-15T23:22:01;8.1;7.0;
56360;PMS7003;42611;51.132;13.588;2024-01-15T23:27:01;6.6;6.2;
56360;PMS7003;42611;51.132;13.588;2024-01-15T23:32:01;5.4;5.0;
56360;PMS7003;42611;51.132;13.588;2024-01-15T23:37:01;3.8;3.8;
56360;PMS7003;42611;51.132;13.588;2024-01-15T23:42:01;3.2;3.0;
56360;PMS7003;42611;51.132;13.588;2024-01-15T23:47:01;2.8;2.6;
56360;PMS7003;42611;51.132;13.588;2024-01-15T23:57:01;2.9;2.6;
